createdAt,value
2023-05-09T00:00:05.591Z,8.08
2023-05-09T00:03:43.431Z,8.01
2023-05-09T00:10:54.556Z,8.03
2023-05-09T00:14:22.288Z,8.14
2023-05-09T00:22:21.577Z,7.96
2023-05-09T00:26:03.766Z,8.00
2023-05-09T00:29:32.565Z,7.96
2023-05-09T00:33:06.962Z,7.87
2023-05-09T00:36:43.521Z,7.95
2023-05-09T00:40:18.193Z,7.94
2023-05-09T00:43:38.500Z,7.94
2023-05-09T00:51:02.588Z,7.90
2023-05-09T00:54:29.955Z,7.80
2023-05-09T00:57:47.794Z,7.81
2023-05-09T01:01:21.765Z,7.73
2023-05-09T01:04:29.054Z,7.81
2023-05-09T01:08:01.482Z,7.68
2023-05-09T01:11:53.691Z,7.66
2023-05-09T01:15:36.155Z,7.74
2023-05-09T01:19:09.426Z,7.61
2023-05-09T01:22:33.924Z,7.56
2023-05-09T01:26:19.934Z,7.56
2023-05-09T01:29:40.543Z,7.49
2023-05-09T01:33:06.012Z,7.43
2023-05-09T01:37:07.629Z,7.35
2023-05-09T01:40:42.991Z,7.29
2023-05-09T01:44:03.339Z,7.20
2023-05-09T01:47:23.218Z,7.15
2023-05-09T01:50:44.832Z,7.21
2023-05-09T01:54:04.974Z,7.17
2023-05-09T01:57:25.450Z,7.19
2023-05-09T02:01:01.324Z,7.11
2023-05-09T02:04:31.459Z,7.13
2023-05-09T02:08:11.702Z,7.05
2023-05-09T02:11:38.903Z,7.16
2023-05-09T02:14:59.541Z,7.10
2023-05-09T02:18:18.190Z,7.17
2023-05-09T02:21:35.887Z,7.13
2023-05-09T02:24:52.952Z,7.14
2023-05-09T02:28:12.848Z,7.20
2023-05-09T02:31:48.657Z,7.12
2023-05-09T02:35:21.520Z,7.07
2023-05-09T02:38:50.425Z,7.11
2023-05-09T02:42:26.681Z,7.12
2023-05-09T02:45:44.740Z,7.12
2023-05-09T02:49:03.739Z,7.06
2023-05-09T02:52:21.585Z,7.01
2023-05-09T02:55:42.879Z,6.95
2023-05-09T02:59:01.361Z,6.92
2023-05-09T03:02:36.846Z,6.85
2023-05-09T03:05:54.637Z,6.82
2023-05-09T03:09:22.702Z,6.91
2023-05-09T03:12:58.942Z,6.97
2023-05-09T03:16:28.587Z,6.95
2023-05-09T03:19:50.110Z,6.88
2023-05-09T03:23:30.651Z,6.79
2023-05-09T03:26:47.734Z,6.97
2023-05-09T03:30:21.927Z,6.90
2023-05-09T03:34:13.610Z,6.92
2023-05-09T03:37:35.356Z,6.91
2023-05-09T03:41:03.827Z,6.88
2023-05-09T03:44:21.704Z,6.84
2023-05-09T03:47:54.160Z,6.94
2023-05-09T03:51:29.268Z,6.90
2023-05-09T03:55:13.128Z,7.04
2023-05-09T03:58:40.882Z,7.08
2023-05-09T04:02:22.504Z,7.22
2023-05-09T04:05:57.138Z,7.22
2023-05-09T04:09:25.171Z,7.31
2023-05-09T04:12:45.352Z,7.36
2023-05-09T04:16:08.771Z,7.39
2023-05-09T04:19:27.327Z,7.45
2023-05-09T04:23:02.018Z,7.54
2023-05-09T04:26:22.005Z,7.55
2023-05-09T04:29:50.517Z,7.64
2023-05-09T04:33:24.889Z,7.75
2023-05-09T04:36:41.569Z,7.79
2023-05-09T04:40:16.342Z,7.91
2023-05-09T04:47:32.762Z,8.04
2023-05-09T04:50:49.827Z,8.17
2023-05-09T04:54:07.696Z,8.26
2023-05-09T04:57:41.694Z,8.34
2023-05-09T05:01:16.899Z,8.38
2023-05-09T05:05:10.816Z,8.42
2023-05-09T05:08:36.683Z,8.50
2023-05-09T05:12:09.619Z,8.72
2023-05-09T05:15:39.649Z,8.83
2023-05-09T05:19:09.796Z,8.96
2023-05-09T05:22:43.749Z,9.01
2023-05-09T05:26:18.115Z,9.12
2023-05-09T05:29:35.923Z,9.18
2023-05-09T05:32:53.128Z,9.29
2023-05-09T05:36:27.089Z,9.37
2023-05-09T05:40:04.937Z,9.47
2023-05-09T05:43:44.872Z,9.64
2023-05-09T05:47:24.009Z,9.64
2023-05-09T06:09:19.738Z,10.73
2023-05-09T06:12:49.957Z,10.84
2023-05-09T06:16:19.204Z,10.87
2023-05-09T06:19:28.993Z,11.10
2023-05-09T06:23:22.694Z,11.22
2023-05-09T06:27:07.647Z,11.35
2023-05-09T06:30:49.011Z,11.59
2023-05-09T06:37:59.018Z,11.92
2023-05-09T06:41:17.081Z,12.11
2023-05-09T06:45:04.274Z,12.14
2023-05-09T06:48:24.406Z,12.38
2023-05-09T06:52:00.172Z,12.37
2023-05-09T06:55:34.272Z,12.45
2023-05-09T06:59:17.824Z,12.83
2023-05-09T07:02:21.123Z,12.86
2023-05-09T07:05:24.174Z,13.03
2023-05-09T07:08:27.461Z,13.22
2023-05-09T07:11:35.947Z,13.36
2023-05-09T07:14:38.773Z,13.43
2023-05-09T07:17:41.509Z,13.57
2023-05-09T07:20:44.900Z,14.05
2023-05-09T07:23:50.372Z,14.28
2023-05-09T07:26:55.980Z,14.44
2023-05-09T07:33:51.513Z,14.39
2023-05-09T07:37:27.841Z,14.66
2023-05-09T07:40:38.566Z,15.05
2023-05-09T07:43:47.679Z,15.34
2023-05-09T07:46:50.750Z,15.79
2023-05-09T07:49:56.565Z,16.40
2023-05-09T07:53:00.136Z,16.25
2023-05-09T07:56:02.854Z,16.69
2023-05-09T07:59:08.552Z,17.36
2023-05-09T08:02:11.128Z,17.65
2023-05-09T08:05:14.445Z,18.47
2023-05-09T08:08:17.691Z,18.20
2023-05-09T08:11:42.766Z,18.78
2023-05-09T08:14:48.473Z,18.94
2023-05-09T08:18:21.954Z,19.42
2023-05-09T08:21:24.899Z,19.38
2023-05-09T08:24:27.520Z,19.23
2023-05-09T08:27:33.545Z,19.25
2023-05-09T08:30:36.554Z,20.25
2023-05-09T08:34:05.888Z,20.64
2023-05-09T08:37:44.832Z,20.88
2023-05-09T08:44:35.107Z,21.60
2023-05-09T08:48:40.240Z,21.47
2023-05-09T08:52:12.236Z,22.06
2023-05-09T08:55:21.189Z,22.49
2023-05-09T08:58:39.169Z,22.95
2023-05-09T09:02:26.817Z,23.29
2023-05-09T09:06:54.034Z,23.89
2023-05-09T09:10:25.808Z,24.18
2023-05-09T09:13:45.441Z,24.67
2023-05-09T09:17:12.452Z,24.83
2023-05-09T09:20:57.725Z,24.28
2023-05-09T09:24:40.729Z,23.57
2023-05-09T09:28:04.346Z,23.24
2023-05-09T09:31:59.025Z,22.79
2023-05-09T09:35:40.542Z,23.08
2023-05-09T09:39:24.036Z,23.07
2023-05-09T09:43:02.167Z,22.84
2023-05-09T09:46:56.590Z,22.74
2023-05-09T09:51:11.398Z,22.59
2023-05-09T09:54:34.055Z,22.05
2023-05-09T09:58:22.180Z,22.69
2023-05-09T10:02:07.596Z,22.28
2023-05-09T10:09:48.754Z,20.23
2023-05-09T10:13:14.291Z,20.60
2023-05-09T10:16:52.123Z,20.63
2023-05-09T10:20:41.076Z,21.23
2023-05-09T10:23:47.773Z,22.80
2023-05-09T10:27:36.011Z,21.84
2023-05-09T10:31:03.714Z,20.97
2023-05-09T10:42:47.894Z,23.87
2023-05-09T10:50:22.531Z,24.67
2023-05-09T10:53:44.288Z,25.02
2023-05-09T10:56:49.443Z,25.77
2023-05-09T11:00:00.813Z,24.20
2023-05-09T11:03:09.495Z,24.54
2023-05-09T11:06:49.787Z,23.83
2023-05-09T11:10:17.324Z,22.48
2023-05-09T11:14:00.959Z,21.45
2023-05-09T11:17:23.642Z,21.72
2023-05-09T11:24:56.617Z,22.69
2023-05-09T11:28:52.747Z,21.46
2023-05-09T11:40:46.225Z,24.74
2023-05-09T11:44:21.974Z,23.81
2023-05-09T11:47:48.445Z,21.72
2023-05-09T11:50:51.362Z,20.68
2023-05-09T11:54:28.078Z,20.38
2023-05-09T11:58:10.581Z,19.85
2023-05-09T12:01:36.056Z,19.99
2023-05-09T12:05:18.818Z,22.10
2023-05-09T12:08:28.937Z,22.53
2023-05-09T12:11:52.684Z,21.47
2023-05-09T12:14:56.228Z,21.16
2023-05-09T12:18:32.124Z,19.90
2023-05-09T12:21:37.094Z,20.53
2023-05-09T12:24:45.004Z,22.24
2023-05-09T12:27:50.665Z,22.96
2023-05-09T12:31:27.231Z,22.74
2023-05-09T12:47:57.313Z,20.01
2023-05-09T12:51:22.003Z,20.61
2023-05-09T12:54:36.671Z,20.67
2023-05-09T12:58:03.610Z,20.21
2023-05-09T13:01:07.066Z,19.62
2023-05-09T13:04:12.636Z,19.64
2023-05-09T13:07:51.545Z,20.16
2023-05-09T13:11:17.383Z,19.98
2023-05-09T13:14:42.844Z,20.31
2023-05-09T13:17:56.081Z,19.72
2023-05-09T13:21:33.029Z,19.41
2023-05-09T13:25:16.215Z,19.03
2023-05-09T13:28:41.638Z,19.23
2023-05-09T13:32:14.701Z,19.34
2023-05-09T13:35:59.429Z,19.33
2023-05-09T13:39:34.285Z,18.94
2023-05-09T13:42:49.353Z,19.00
2023-05-09T13:45:59.817Z,19.11
2023-05-09T13:49:17.106Z,19.19
2023-05-09T13:52:48.025Z,19.69
2023-05-09T13:56:33.563Z,19.83
2023-05-09T13:59:58.467Z,19.97
2023-05-09T14:03:14.867Z,19.59
2023-05-09T14:07:04.103Z,19.30
2023-05-09T14:10:24.590Z,19.24
2023-05-09T14:14:13.711Z,19.01
2023-05-09T14:17:58.855Z,18.92
2023-05-09T14:21:40.388Z,19.01
2023-05-09T14:25:11.735Z,18.88
2023-05-09T14:28:50.260Z,19.19
2023-05-09T14:32:08.516Z,19.19
2023-05-09T14:35:14.073Z,18.96
2023-05-09T14:38:18.569Z,18.57
2023-05-09T14:41:26.973Z,18.38
2023-05-09T14:45:12.995Z,18.45
2023-05-09T14:48:20.061Z,18.80
2023-05-09T14:51:24.906Z,19.07
2023-05-09T14:54:30.122Z,18.96
2023-05-09T14:58:16.557Z,18.75
2023-05-09T15:01:41.847Z,18.39
2023-05-09T15:05:25.520Z,18.23
2023-05-09T15:09:11.076Z,18.02
2023-05-09T15:12:18.675Z,17.95
2023-05-09T15:15:45.278Z,17.89
2023-05-09T15:18:49.416Z,18.10
2023-05-09T15:21:52.359Z,18.20
2023-05-09T15:24:58.454Z,18.55
2023-05-09T15:28:36.511Z,18.85
2023-05-09T15:32:25.921Z,19.16
2023-05-09T15:35:50.218Z,19.27
2023-05-09T15:39:35.020Z,19.48
2023-05-09T15:43:18.266Z,19.68
2023-05-09T15:46:38.213Z,19.30
2023-05-09T15:50:16.765Z,19.17
2023-05-09T15:53:51.365Z,19.46
2023-05-09T15:57:17.603Z,19.21
2023-05-09T16:00:24.320Z,19.04
2023-05-09T16:07:58.919Z,18.20
2023-05-09T16:18:42.029Z,17.75
2023-05-09T16:21:46.572Z,17.50
2023-05-09T16:25:09.627Z,17.38
2023-05-09T16:28:28.200Z,17.35
2023-05-09T16:32:03.130Z,17.39
2023-05-09T16:39:37.853Z,17.38
2023-05-09T16:43:08.704Z,17.27
2023-05-09T16:46:15.634Z,17.20
2023-05-09T16:49:36.026Z,17.08
2023-05-09T16:53:26.417Z,17.02
2023-05-09T16:56:33.551Z,16.94
2023-05-09T16:59:38.523Z,16.93
2023-05-09T17:03:21.703Z,16.83
2023-05-09T17:06:30.500Z,16.61
2023-05-09T17:09:38.323Z,16.50
2023-05-09T17:12:42.707Z,16.44
2023-05-09T17:16:18.633Z,16.27
2023-05-09T17:20:22.071Z,16.28
2023-05-09T17:23:28.357Z,16.08
2023-05-09T17:26:32.218Z,16.02
2023-05-09T17:29:37.211Z,15.85
2023-05-09T17:32:42.861Z,15.80
2023-05-09T17:35:49.484Z,15.72
2023-05-09T17:38:54.260Z,15.65
2023-05-09T17:41:59.218Z,15.55
2023-05-09T17:45:06.452Z,15.48
2023-05-09T17:48:09.674Z,15.39
2023-05-09T17:51:12.708Z,15.26
2023-05-09T17:54:19.263Z,15.17
2023-05-09T17:57:22.948Z,15.12
2023-05-09T18:00:25.967Z,14.96
2023-05-09T18:03:29.132Z,14.86
2023-05-09T18:06:33.284Z,14.83
2023-05-09T18:09:36.704Z,14.69
2023-05-09T18:12:40.112Z,14.55
2023-05-09T18:15:43.102Z,14.43
2023-05-09T18:18:46.646Z,14.35
2023-05-09T18:21:51.243Z,14.23
2023-05-09T18:25:00.743Z,14.06
2023-05-09T18:28:03.590Z,13.97
2023-05-09T18:31:13.718Z,13.85
2023-05-09T18:34:37.756Z,13.68
2023-05-09T18:37:41.953Z,13.53
2023-05-09T18:40:47.363Z,13.37
2023-05-09T18:43:53.227Z,13.23
2023-05-09T18:46:57.955Z,13.06
2023-05-09T18:50:21.029Z,12.93
2023-05-09T18:53:26.305Z,12.84
2023-05-09T18:56:29.773Z,12.70
2023-05-09T18:59:33.594Z,12.62
2023-05-09T19:02:42.434Z,12.50
2023-05-09T19:06:05.577Z,12.49
2023-05-09T19:09:11.905Z,12.44
2023-05-09T19:12:16.745Z,12.40
2023-05-09T19:15:23.868Z,12.27
2023-05-09T19:18:26.936Z,12.14
2023-05-09T19:21:30.870Z,12.08
2023-05-09T19:24:38.170Z,12.04
2023-05-09T19:27:42.958Z,12.05
2023-05-09T19:30:47.034Z,11.99
2023-05-09T19:33:51.520Z,11.95
2023-05-09T19:36:54.950Z,11.96
2023-05-09T19:39:58.909Z,12.02
2023-05-09T19:43:22.322Z,12.01
2023-05-09T19:46:26.608Z,12.03
2023-05-09T19:49:30.014Z,12.09
2023-05-09T19:52:36.363Z,12.03
2023-05-09T19:55:39.477Z,11.95
2023-05-09T19:58:43.481Z,11.93
2023-05-09T20:01:47.643Z,11.79
2023-05-09T20:04:51.244Z,11.69
2023-05-09T20:07:56.303Z,11.59
2023-05-09T20:11:00.370Z,11.54
2023-05-09T20:14:03.861Z,11.47
2023-05-09T20:17:07.070Z,11.47
2023-05-09T20:20:11.347Z,11.47
2023-05-09T20:23:15.498Z,11.54
2023-05-09T20:26:19.018Z,11.60
2023-05-09T20:29:33.058Z,11.64
2023-05-09T20:32:35.817Z,11.57
2023-05-09T20:35:43.260Z,11.66
2023-05-09T20:38:45.934Z,11.67
2023-05-09T20:41:50.416Z,11.56
2023-05-09T20:44:55.373Z,11.59
2023-05-09T20:47:59.118Z,11.55
2023-05-09T20:51:02.123Z,11.53
2023-05-09T20:54:05.881Z,11.47
2023-05-09T20:57:08.625Z,11.48
2023-05-09T21:00:12.871Z,11.47
2023-05-09T21:03:18.493Z,11.49
2023-05-09T21:06:22.082Z,11.44
2023-05-09T21:09:25.249Z,11.39
2023-05-09T21:12:28.640Z,11.35
2023-05-09T21:15:31.752Z,11.36
2023-05-09T21:18:35.026Z,11.24
2023-05-09T21:21:37.949Z,11.27
2023-05-09T21:24:41.325Z,11.18
2023-05-09T21:27:44.590Z,11.17
2023-05-09T21:30:54.680Z,11.27
2023-05-09T21:33:59.500Z,11.28
